Golva, North Dakota
Current Conditions -  °F | °C
As of 1:51 AM on Friday 24 Oct 2014 (Local Time) from KBHK Reporting Station
Clear Clear  
Wind Chill: 43°   Ceiling: Unl
Heat Index: 43°   Visibility: 10mi
Dew Point: 33°   Wind: 3mph
Humidity: 68%   Direction: 330°NNW
Pressure: 29.87"   Gusts: NA
Location:  46.73°N, 103.99°W
Report Text: KBHK 240751Z AUTO 33003KT 10SM CLR 06/01 A2987 RMK AO2 SLP109 T00610006
Loading
Personal Weather Stations






























Interactive Weather Map
Tropical Storm Tracking
New forecast layout! Learn more

10-Day Weather Forecast

Advertisements
Track Severe Weather on mobile